Time;durP1;ratioP1;P1;durP2;ratioP2;P2;SDS_P1;SDS_P2;PMS_P1;PMS_P2;Temp;Humidity;BMP_temperature;BMP_pressure;BME280_temperature;BME280_humidity;BME280_pressure;Samples;Min_cycle;Max_cycle;Signal;HPM_P1;HPM_P2
2023/09/10 00:02:27;;;;;;;17.40;14.80;;;;;;;17.12;88.54;98280.10;106922;1262;22527;-76
2023/09/10 00:04:55;;;;;;;15.30;13.80;;;;;;;17.08;88.79;98272.73;106856;1267;22552;-74
2023/09/10 00:07:24;;;;;;;15.60;14.00;;;;;;;17.02;88.84;98275.31;106968;1278;22579;-75
2023/09/10 00:09:52;;;;;;;16.50;14.90;;;;;;;16.99;88.89;98275.95;106807;1278;25489;-75
2023/09/10 00:12:20;;;;;;;16.60;14.70;;;;;;;16.95;89.05;98272.96;106655;1278;23294;-75
2023/09/10 00:14:48;;;;;;;14.90;13.40;;;;;;;16.94;89.19;98274.29;107061;1278;24376;-75
2023/09/10 00:17:16;;;;;;;16.50;14.80;;;;;;;16.94;89.44;98275.95;106505;1278;25623;-75
2023/09/10 00:19:44;;;;;;;17.80;15.90;;;;;;;16.92;89.55;98275.86;106735;1274;22614;-75
2023/09/10 00:22:12;;;;;;;16.90;15.20;;;;;;;16.87;89.67;98270.99;106697;1263;22716;-75
2023/09/10 00:24:40;;;;;;;16.70;14.40;;;;;;;16.81;89.74;98270.85;106743;1262;22509;-75
2023/09/10 00:27:08;;;;;;;15.80;13.90;;;;;;;16.78;90.09;98269.04;106738;1278;22699;-75
2023/09/10 00:29:36;;;;;;;15.70;14.10;;;;;;;16.76;89.96;98266.60;106865;1277;214153;-75
2023/09/10 00:32:04;;;;;;;17.50;14.30;;;;;;;16.74;89.97;98266.52;107066;1277;22563;-75
2023/09/10 00:34:32;;;;;;;16.70;15.00;;;;;;;16.70;90.19;98269.92;106697;1278;22647;-75
2023/09/10 00:37:01;;;;;;;16.30;14.60;;;;;;;16.63;90.43;98272.60;106533;1278;25196;-75
2023/09/10 00:39:29;;;;;;;19.40;16.40;;;;;;;16.55;90.61;98272.45;106792;1277;22538;-75
2023/09/10 00:41:57;;;;;;;18.10;15.40;;;;;;;16.48;90.72;98271.48;106728;1264;22554;-75
2023/09/10 00:44:25;;;;;;;16.00;14.40;;;;;;;16.46;90.92;98268.84;106991;1278;22529;-75
2023/09/10 00:46:54;;;;;;;16.10;14.50;;;;;;;16.46;90.93;98266.67;107032;1256;23547;-75
2023/09/10 00:49:22;;;;;;;19.60;14.90;;;;;;;16.46;91.60;98263.41;107021;1263;25488;-76
2023/09/10 00:51:50;;;;;;;15.40;14.00;;;;;;;16.46;91.96;98261.77;106995;1272;25298;-76
2023/09/10 00:54:22;;;;;;;18.20;16.40;;;;;;;16.47;92.15;98259.78;107037;1278;23905;-76
2023/09/10 00:56:52;;;;;;;17.30;15.50;;;;;;;16.49;92.21;98261.65;106893;1278;24056;-76
2023/09/10 00:59:20;;;;;;;17.60;15.80;;;;;;;16.52;92.24;98258.58;106890;1278;23845;-76
2023/09/10 01:01:48;;;;;;;15.90;14.30;;;;;;;16.57;92.58;98257.40;106661;1267;25453;-76
2023/09/10 01:04:17;;;;;;;18.50;16.00;;;;;;;16.64;92.54;98252.89;106584;1275;22768;-76
2023/09/10 01:06:46;;;;;;;20.60;17.20;;;;;;;16.68;92.47;98257.36;106748;1272;22530;-75
2023/09/10 01:09:14;;;;;;;19.10;15.80;;;;;;;16.69;92.74;98252.88;106666;1278;25344;-75
2023/09/10 01:12:01;;;;;;;18.60;16.70;;;;;;;16.67;92.87;98253.58;106594;1278;22650;-76
2023/09/10 01:15:13;;;;;;;15.60;14.20;;;;;;;16.64;92.92;98253.06;106502;1274;22540;-75
2023/09/10 01:17:49;;;;;;;16.70;15.00;;;;;;;16.62;93.45;98249.39;106407;1274;24405;-75
2023/09/10 01:20:42;;;;;;;17.60;15.70;;;;;;;16.62;93.83;98252.70;106144;1286;22651;-75
2023/09/10 01:23:17;;;;;;;15.60;15.00;;;;;;;16.63;93.54;98247.05;106091;1276;22540;-75
2023/09/10 01:25:46;;;;;;;17.90;15.50;;;;;;;16.64;93.45;98247.91;106067;1280;22712;-75
2023/09/10 01:28:14;;;;;;;17.40;15.60;;;;;;;16.63;93.52;98244.56;106374;1262;22683;-76
2023/09/10 01:30:47;;;;;;;17.70;16.00;;;;;;;16.62;93.70;98246.77;106435;1285;22623;-77
2023/09/10 01:33:36;;;;;;;17.00;15.30;;;;;;;16.61;93.66;98248.67;106442;1285;22612;-76
2023/09/10 01:36:38;;;;;;;14.90;13.40;;;;;;;16.57;93.46;98247.98;106442;1283;22607;-76
2023/09/10 01:39:38;;;;;;;16.10;13.70;;;;;;;16.55;93.63;98252.19;106448;1271;22544;-76
2023/09/10 01:42:08;;;;;;;20.20;16.00;;;;;;;16.56;93.79;98250.52;105891;1277;22551;-76
2023/09/10 01:44:38;;;;;;;18.00;16.20;;;;;;;16.52;93.65;98252.08;106034;1283;25386;-76
2023/09/10 01:47:07;;;;;;;16.00;14.50;;;;;;;16.46;93.62;98249.96;106063;1286;24462;-75
2023/09/10 01:49:36;;;;;;;17.60;15.90;;;;;;;16.40;93.60;98253.52;105764;1280;22536;-76
2023/09/10 01:52:05;;;;;;;17.10;14.70;;;;;;;16.29;93.80;98255.75;105957;1286;23399;-76
2023/09/10 01:54:33;;;;;;;16.80;15.10;;;;;;;16.22;93.78;98254.20;106044;1284;25607;-77
2023/09/10 01:57:01;;;;;;;16.10;14.50;;;;;;;16.16;93.86;98253.13;106483;1283;24376;-76
2023/09/10 01:59:29;;;;;;;18.80;15.60;;;;;;;16.14;94.10;98251.17;106544;1284;22650;-83
2023/09/10 02:01:57;;;;;;;17.70;15.90;;;;;;;16.14;94.50;98254.34;106236;1274;25581;-78
2023/09/10 02:04:25;;;;;;;19.30;17.40;;;;;;;16.09;94.23;98250.55;106545;1273;22563;-79
2023/09/10 02:06:53;;;;;;;17.00;15.40;;;;;;;16.02;94.19;98247.27;106512;1270;24210;-78
2023/09/10 02:09:21;;;;;;;17.40;15.70;;;;;;;15.97;94.33;98249.23;106505;1270;24200;-78
2023/09/10 02:11:49;;;;;;;18.00;16.20;;;;;;;15.94;94.19;98249.23;106432;1274;22564;-78
2023/09/10 02:14:17;;;;;;;17.80;16.00;;;;;;;15.89;94.22;98249.54;106394;1278;22578;-78
2023/09/10 02:16:45;;;;;;;18.10;16.40;;;;;;;15.89;94.77;98246.89;106508;1285;22590;-78
2023/09/10 02:19:14;;;;;;;19.00;17.00;;;;;;;15.86;94.58;98249.80;106781;1278;22514;-78
2023/09/10 02:21:43;;;;;;;18.10;16.30;;;;;;;15.81;94.61;98248.58;106851;1265;25485;-78
2023/09/10 02:24:11;;;;;;;20.30;18.30;;;;;;;15.76;94.95;98249.90;106987;1275;24378;-78
2023/09/10 02:26:39;;;;;;;24.40;15.40;;;;;;;15.67;94.55;98244.57;107049;1266;22521;-78
2023/09/10 02:29:07;;;;;;;17.30;15.60;;;;;;;15.56;94.82;98245.54;107079;1264;25339;-78
2023/09/10 02:31:35;;;;;;;16.30;14.70;;;;;;;15.41;95.57;98243.05;106941;1271;23357;-78
2023/09/10 02:34:04;;;;;;;18.00;16.20;;;;;;;15.29;95.61;98243.28;107011;1270;22676;-78
2023/09/10 02:36:32;;;;;;;17.90;15.90;;;;;;;15.24;95.76;98246.10;107165;1277;22543;-78
2023/09/10 02:39:01;;;;;;;17.60;15.60;;;;;;;15.17;95.69;98247.52;107124;1268;22823;-78
2023/09/10 02:41:29;;;;;;;17.20;15.30;;;;;;;15.08;96.28;98247.19;106869;1267;25342;-78
2023/09/10 02:43:58;;;;;;;15.50;13.90;;;;;;;15.05;96.25;98249.08;107004;1267;22524;-78
2023/09/10 02:46:27;;;;;;;15.40;13.90;;;;;;;15.00;96.35;98247.98;107127;1272;23007;-78
2023/09/10 02:48:56;;;;;;;17.00;14.90;;;;;;;14.93;97.24;98251.56;107124;1275;24244;-79
2023/09/10 02:51:24;;;;;;;18.70;14.60;;;;;;;14.78;97.25;98257.13;107043;1262;22639;-78
2023/09/10 02:53:52;;;;;;;16.20;14.70;;;;;;;14.66;98.47;98258.73;107094;1265;22550;-78
2023/09/10 02:56:20;;;;;;;15.80;14.30;;;;;;;14.57;98.74;98255.63;107114;1272;22647;-78
2023/09/10 02:58:48;;;;;;;15.30;13.50;;;;;;;14.52;99.44;98257.02;107092;1277;22543;-78
2023/09/10 03:01:16;;;;;;;14.60;13.10;;;;;;;14.46;100.00;98257.98;106902;1276;22701;-78
2023/09/10 03:03:44;;;;;;;15.40;13.80;;;;;;;14.39;100.00;98261.27;106872;1277;24212;-78
2023/09/10 03:06:12;;;;;;;14.40;12.90;;;;;;;14.32;100.00;98262.23;107095;1263;24381;-78
2023/09/10 03:08:42;;;;;;;13.90;12.60;;;;;;;14.26;100.00;98259.34;106884;1278;22658;-78
2023/09/10 03:11:10;;;;;;;14.40;12.80;;;;;;;14.26;100.00;98265.52;106975;1277;22579;-78
2023/09/10 03:13:38;;;;;;;15.10;13.20;;;;;;;14.24;100.00;98264.50;107092;1266;22530;-78
2023/09/10 03:16:08;;;;;;;14.10;12.70;;;;;;;14.23;100.00;98267.08;107081;1276;25735;-77
2023/09/10 03:18:36;;;;;;;14.40;13.00;;;;;;;14.25;100.00;98264.38;106524;1273;23068;-78
2023/09/10 03:21:04;;;;;;;14.20;12.90;;;;;;;14.22;100.00;98263.09;106544;1277;22765;-77
2023/09/10 03:23:33;;;;;;;14.10;12.70;;;;;;;14.20;100.00;98262.29;106952;1272;22527;-77
2023/09/10 03:26:01;;;;;;;13.70;12.20;;;;;;;14.20;100.00;98261.04;107040;1266;25716;-77
2023/09/10 03:28:29;;;;;;;13.90;12.40;;;;;;;14.20;100.00;98254.91;106891;1278;22558;-77
2023/09/10 03:30:58;;;;;;;13.80;12.40;;;;;;;14.20;100.00;98255.45;106924;1278;22643;-77
2023/09/10 03:33:27;;;;;;;13.90;12.70;;;;;;;14.19;100.00;98251.46;106914;1269;22548;-78
2023/09/10 03:35:55;;;;;;;14.40;12.40;;;;;;;14.18;100.00;98252.10;106831;1277;22725;-78
2023/09/10 03:38:23;;;;;;;13.80;12.40;;;;;;;14.19;100.00;98249.59;106884;1276;22647;-78
2023/09/10 03:40:51;;;;;;;15.00;12.90;;;;;;;14.18;100.00;98252.52;106886;1278;24242;-78
2023/09/10 03:43:19;;;;;;;15.10;12.30;;;;;;;14.16;100.00;98250.84;106960;1267;24067;-76
2023/09/10 03:45:51;;;;;;;14.00;12.30;;;;;;;14.17;100.00;98252.55;106766;1277;22647;-77
2023/09/10 03:48:20;;;;;;;13.70;12.20;;;;;;;14.24;100.00;98252.95;106636;1268;24229;-78
2023/09/10 03:50:49;;;;;;;16.00;12.50;;;;;;;14.29;100.00;98254.94;106989;1269;22645;-78
2023/09/10 03:53:17;;;;;;;13.70;12.30;;;;;;;14.26;100.00;98253.38;107057;1266;25323;-76
2023/09/10 03:55:45;;;;;;;13.80;12.40;;;;;;;14.24;100.00;98255.95;106564;1271;22902;-76
2023/09/10 03:58:14;;;;;;;15.60;12.90;;;;;;;14.20;100.00;98254.05;106714;1278;22523;-76
2023/09/10 04:00:42;;;;;;;14.90;12.90;;;;;;;14.20;100.00;98261.36;106588;1265;22552;-76
2023/09/10 04:03:11;;;;;;;16.60;13.50;;;;;;;14.19;100.00;98255.55;106439;1269;24391;-76
2023/09/10 04:05:39;;;;;;;14.00;12.50;;;;;;;14.23;100.00;98255.48;106469;1268;22650;-77
2023/09/10 04:08:08;;;;;;;13.50;12.00;;;;;;;14.25;100.00;98252.98;106678;1278;25335;-78
2023/09/10 04:10:36;;;;;;;14.00;12.20;;;;;;;14.21;100.00;98252.59;106903;1265;22550;-78
2023/09/10 04:13:04;;;;;;;14.30;12.90;;;;;;;14.17;100.00;98251.05;107096;1268;25457;-78
2023/09/10 04:15:32;;;;;;;14.10;12.60;;;;;;;14.10;100.00;98251.11;107075;1268;22608;-78
2023/09/10 04:18:00;;;;;;;13.80;12.00;;;;;;;14.02;100.00;98254.63;106861;1279;22612;-77
2023/09/10 04:20:29;;;;;;;14.40;12.90;;;;;;;13.97;100.00;98253.42;106922;1263;25552;-77
2023/09/10 04:22:57;;;;;;;14.20;12.90;;;;;;;13.94;100.00;98249.73;106516;1270;23886;-77
2023/09/10 04:25:25;;;;;;;14.10;12.70;;;;;;;13.91;100.00;98244.60;106572;1268;26632;-77
2023/09/10 04:27:53;;;;;;;14.50;12.90;;;;;;;13.90;100.00;98239.10;106772;1259;24269;-77
2023/09/10 04:30:21;;;;;;;14.30;13.00;;;;;;;13.86;100.00;98240.66;106690;1271;22548;-77
2023/09/10 04:32:50;;;;;;;14.90;13.30;;;;;;;13.82;100.00;98243.32;106592;1270;22552;-77
2023/09/10 04:35:18;;;;;;;14.90;13.30;;;;;;;13.84;100.00;98244.77;106628;1264;23304;-77
2023/09/10 04:37:46;;;;;;;15.80;14.40;;;;;;;13.99;100.00;98242.81;107038;1277;24291;-77
2023/09/10 04:40:14;;;;;;;15.70;14.20;;;;;;;14.12;100.00;98244.68;107077;1272;25379;-77
2023/09/10 04:42:42;;;;;;;15.10;13.60;;;;;;;14.23;100.00;98250.19;106892;1278;22771;-77
2023/09/10 04:45:10;;;;;;;14.80;13.10;;;;;;;14.30;100.00;98248.89;106861;1278;25396;-78
2023/09/10 04:47:38;;;;;;;13.80;12.50;;;;;;;14.31;100.00;98248.90;106814;1268;22539;-78
2023/09/10 04:50:07;;;;;;;14.50;13.10;;;;;;;14.27;100.00;98259.06;106829;1277;24435;-77
2023/09/10 04:52:39;;;;;;;14.80;13.30;;;;;;;14.24;100.00;98258.54;106868;1274;22807;-77
2023/09/10 04:55:07;;;;;;;13.90;12.60;;;;;;;14.23;100.00;98259.71;106958;1276;22527;-77
2023/09/10 04:57:35;;;;;;;14.50;13.20;;;;;;;14.24;100.00;98259.96;106893;1278;24281;-77
2023/09/10 05:00:05;;;;;;;14.20;12.70;;;;;;;14.28;100.00;98259.29;106927;1267;25552;-77
2023/09/10 05:02:33;;;;;;;16.10;14.70;;;;;;;14.31;100.00;98262.26;106880;1278;22531;-77
2023/09/10 05:05:03;;;;;;;17.90;15.30;;;;;;;14.35;100.00;98261.16;106619;1268;24384;-76
2023/09/10 05:07:31;;;;;;;16.30;14.00;;;;;;;14.42;100.00;98257.11;106524;1277;22515;-77
2023/09/10 05:09:59;;;;;;;16.50;14.80;;;;;;;14.47;100.00;98261.35;106465;1279;25243;-76
2023/09/10 05:12:27;;;;;;;15.90;14.30;;;;;;;14.53;100.00;98254.59;106529;1269;22545;-78
2023/09/10 05:14:55;;;;;;;17.30;14.30;;;;;;;14.63;100.00;98254.52;106861;1269;22565;-78
2023/09/10 05:17:24;;;;;;;17.90;13.60;;;;;;;14.77;100.00;98259.11;106891;1256;25617;-78
2023/09/10 05:19:52;;;;;;;16.10;14.30;;;;;;;14.87;100.00;98258.23;106843;1277;26629;-78
2023/09/10 05:22:20;;;;;;;17.50;14.20;;;;;;;14.94;100.00;98258.32;106863;1265;22835;-78
2023/09/10 05:24:48;;;;;;;16.20;14.70;;;;;;;15.03;100.00;98260.17;106817;1279;22616;-78
2023/09/10 05:27:16;;;;;;;18.30;16.60;;;;;;;15.11;100.00;98261.90;106830;1270;25342;-76
2023/09/10 05:29:44;;;;;;;18.60;16.80;;;;;;;15.20;100.00;98260.83;106628;1268;22647;-78
2023/09/10 05:32:13;;;;;;;17.90;15.40;;;;;;;15.28;100.00;98261.17;106743;1267;22643;-78
2023/09/10 05:34:41;;;;;;;16.90;15.40;;;;;;;15.37;100.00;98261.48;107000;1266;22904;-78
2023/09/10 05:37:09;;;;;;;18.10;16.30;;;;;;;15.46;100.00;98263.36;106897;1278;22535;-78
2023/09/10 05:39:37;;;;;;;19.10;17.30;;;;;;;15.56;100.00;98264.71;106842;1272;22533;-77
2023/09/10 05:42:06;;;;;;;19.40;17.60;;;;;;;15.62;100.00;98257.74;106913;1268;22544;-78
2023/09/10 05:44:34;;;;;;;19.00;17.20;;;;;;;15.71;100.00;98260.10;106751;1264;22590;-77
2023/09/10 05:47:02;;;;;;;17.10;15.60;;;;;;;15.84;100.00;98263.25;106864;1266;22761;-77
2023/09/10 05:49:33;;;;;;;18.40;16.70;;;;;;;15.98;100.00;98263.10;106865;1278;22578;-78
2023/09/10 05:52:01;;;;;;;19.90;17.80;;;;;;;16.13;100.00;98264.20;106957;1278;22628;-77
2023/09/10 05:54:30;;;;;;;19.60;17.00;;;;;;;16.28;100.00;98262.83;106921;1269;22725;-77
2023/09/10 05:56:58;;;;;;;18.40;16.60;;;;;;;16.41;100.00;98265.52;106965;1277;22570;-77
2023/09/10 05:59:26;;;;;;;19.00;16.80;;;;;;;16.52;100.00;98262.10;106935;1271;24421;-77
2023/09/10 06:01:55;;;;;;;20.60;18.40;;;;;;;16.63;100.00;98262.96;106836;1268;22646;-78
2023/09/10 06:04:23;;;;;;;19.50;17.60;;;;;;;16.72;100.00;98262.27;106918;1265;24388;-78
2023/09/10 06:06:51;;;;;;;19.20;17.40;;;;;;;16.86;100.00;98265.67;106779;1266;22530;-78
2023/09/10 06:09:20;;;;;;;18.30;16.60;;;;;;;17.02;100.00;98264.20;106852;1270;22651;-79
2023/09/10 06:11:48;;;;;;;19.70;17.70;;;;;;;17.19;100.00;98263.19;106921;1278;25035;-78
2023/09/10 06:14:16;;;;;;;20.60;18.40;;;;;;;17.37;100.00;98265.30;106845;1265;22621;-78
2023/09/10 06:16:44;;;;;;;20.30;18.50;;;;;;;17.54;100.00;98263.58;106931;1264;24373;-78
2023/09/10 06:19:12;;;;;;;19.90;18.00;;;;;;;17.70;100.00;98262.77;106943;1278;24349;-78
2023/09/10 06:21:41;;;;;;;20.60;18.50;;;;;;;17.84;100.00;98263.99;106937;1266;22575;-78
2023/09/10 06:24:09;;;;;;;19.90;17.90;;;;;;;17.99;100.00;98262.12;106959;1279;24295;-78
2023/09/10 06:26:37;;;;;;;20.10;18.10;;;;;;;18.18;100.00;98261.16;106861;1278;24295;-78
2023/09/10 06:29:05;;;;;;;21.30;19.10;;;;;;;18.34;100.00;98263.09;107071;1272;24455;-80
2023/09/10 06:31:33;;;;;;;21.40;19.20;;;;;;;18.46;100.00;98264.42;107023;1274;22764;-80
2023/09/10 06:34:02;;;;;;;21.00;19.00;;;;;;;18.58;100.00;98266.02;106906;1278;24281;-79
2023/09/10 06:36:30;;;;;;;20.20;18.10;;;;;;;18.71;100.00;98269.88;106909;1268;22611;-79
2023/09/10 06:38:59;;;;;;;19.20;17.20;;;;;;;18.84;100.00;98269.96;106908;1278;24263;-79
2023/09/10 06:41:27;;;;;;;19.60;16.80;;;;;;;18.97;100.00;98268.18;106825;1272;22639;-80
2023/09/10 06:43:55;;;;;;;20.00;17.60;;;;;;;19.09;100.00;98272.58;106874;1268;24370;-81
2023/09/10 06:46:24;;;;;;;19.70;17.70;;;;;;;19.19;100.00;98271.24;106886;1272;22542;-81
2023/09/10 06:48:52;;;;;;;19.50;17.40;;;;;;;19.29;100.00;98273.71;106954;1268;23742;-80
2023/09/10 06:51:20;;;;;;;18.90;17.00;;;;;;;19.40;100.00;98267.55;106953;1263;23397;-80
2023/09/10 06:53:48;;;;;;;17.10;15.30;;;;;;;19.51;100.00;98269.73;107051;1277;24316;-80
2023/09/10 06:56:16;;;;;;;17.50;15.50;;;;;;;19.66;100.00;98275.36;107064;1267;25339;-80
2023/09/10 06:58:44;;;;;;;19.10;17.30;;;;;;;19.79;100.00;98274.73;107106;1267;24305;-80
2023/09/10 07:01:15;;;;;;;19.70;17.70;;;;;;;19.92;100.00;98277.70;106886;1270;22525;-79
2023/09/10 07:03:43;;;;;;;20.00;18.00;;;;;;;20.03;100.00;98277.52;107084;1263;22639;-79
2023/09/10 07:06:12;;;;;;;20.80;18.70;;;;;;;20.12;100.00;98277.58;107029;1272;22524;-79
2023/09/10 07:08:40;;;;;;;19.40;17.50;;;;;;;20.21;100.00;98274.63;107041;1269;22636;-79
2023/09/10 07:11:09;;;;;;;19.30;16.90;;;;;;;20.33;100.00;98277.88;106955;1277;24256;-79
2023/09/10 07:13:37;;;;;;;17.10;15.40;;;;;;;20.46;100.00;98279.36;107042;1264;23044;-79
2023/09/10 07:16:05;;;;;;;17.10;15.40;;;;;;;20.59;100.00;98283.45;106882;1269;22648;-79
2023/09/10 07:18:34;;;;;;;19.20;16.70;;;;;;;20.71;100.00;98287.88;107013;1267;22532;-79
2023/09/10 07:21:02;;;;;;;21.00;16.80;;;;;;;20.79;100.00;98284.23;107089;1278;22633;-79
2023/09/10 07:23:30;;;;;;;17.30;15.70;;;;;;;20.84;100.00;98286.31;106881;1278;22639;-79
2023/09/10 07:25:58;;;;;;;17.90;14.90;;;;;;;20.93;100.00;98286.27;107108;1277;22582;-80
2023/09/10 07:28:26;;;;;;;16.50;14.80;;;;;;;21.02;100.00;98286.14;107119;1263;25753;-78
2023/09/10 07:30:54;;;;;;;17.00;13.80;;;;;;;21.10;100.00;98289.61;107092;1259;22527;-79
2023/09/10 07:33:22;;;;;;;15.40;13.80;;;;;;;21.20;100.00;98288.80;107053;1267;22526;-79
2023/09/10 07:35:50;;;;;;;14.60;13.30;;;;;;;21.30;100.00;98288.15;107204;1277;22631;-78
2023/09/10 07:38:18;;;;;;;15.30;13.70;;;;;;;21.40;100.00;98291.35;107487;1272;25443;-79
2023/09/10 07:40:46;;;;;;;15.00;12.40;;;;;;;21.47;99.75;98295.48;107540;1263;22523;-79
2023/09/10 07:43:14;;;;;;;14.30;12.90;;;;;;;21.54;99.07;98292.25;107948;1274;25413;-79
2023/09/10 07:45:45;;;;;;;18.70;16.10;;;;;;;21.61;98.83;98288.33;107344;1263;25426;-79
2023/09/10 07:48:13;;;;;;;14.20;12.80;;;;;;;21.71;98.06;98287.35;107039;1278;22564;-78
2023/09/10 07:50:42;;;;;;;14.10;12.60;;;;;;;21.83;98.17;98284.52;107129;1275;22778;-79
2023/09/10 07:53:10;;;;;;;15.10;12.00;;;;;;;21.99;97.98;98286.52;107147;1277;22975;-78
2023/09/10 07:55:38;;;;;;;13.60;12.20;;;;;;;22.10;96.71;98286.95;107050;1278;25193;-79
2023/09/10 07:58:06;;;;;;;13.40;12.10;;;;;;;22.20;96.85;98285.58;106962;1278;22536;-79
2023/09/10 08:00:36;;;;;;;15.40;12.70;;;;;;;22.31;96.26;98286.78;106994;1278;22644;-80
2023/09/10 08:03:06;;;;;;;14.00;12.60;;;;;;;22.39;96.14;98283.95;107135;1266;24252;-78
2023/09/10 08:05:35;;;;;;;14.20;12.70;;;;;;;22.50;96.05;98283.23;107117;1275;24353;-78
2023/09/10 08:08:03;;;;;;;14.90;13.30;;;;;;;22.60;94.92;98285.05;106959;1278;24110;-79
2023/09/10 08:10:33;;;;;;;14.60;12.40;;;;;;;22.64;94.26;98282.61;107087;1266;23918;-79
2023/09/10 08:13:03;;;;;;;15.00;13.40;;;;;;;22.72;92.84;98289.84;107136;1266;22571;-79
2023/09/10 08:15:32;;;;;;;15.00;13.40;;;;;;;22.73;92.67;98287.60;107144;1278;24276;-79
2023/09/10 08:18:00;;;;;;;13.90;12.50;;;;;;;22.82;92.96;98291.89;107003;1268;25040;-79
2023/09/10 08:20:30;;;;;;;13.60;12.20;;;;;;;22.94;92.19;98296.02;107017;1275;22656;-77
2023/09/10 08:22:58;;;;;;;14.30;12.50;;;;;;;23.06;91.73;98295.48;106944;1275;22532;-77
2023/09/10 08:25:26;;;;;;;14.30;12.00;;;;;;;23.15;91.58;98293.56;106699;1271;23547;-77
2023/09/10 08:27:55;;;;;;;13.20;11.80;;;;;;;23.25;91.13;98294.25;107107;1278;24391;-77
2023/09/10 08:30:23;;;;;;;12.50;11.30;;;;;;;23.37;91.28;98289.44;107088;1256;24404;-77
2023/09/10 08:32:51;;;;;;;12.30;10.90;;;;;;;23.49;90.48;98292.58;107099;1277;22525;-77
2023/09/10 08:35:20;;;;;;;12.90;11.50;;;;;;;23.61;90.08;98294.98;107111;1269;22536;-76
2023/09/10 08:37:48;;;;;;;14.90;11.70;;;;;;;23.73;89.41;98297.20;106649;1278;24367;-76
2023/09/10 08:40:16;;;;;;;12.20;11.00;;;;;;;23.80;88.60;98294.13;106582;1269;22625;-76
2023/09/10 08:43:05;;;;;;;11.30;10.20;;;;;;;23.87;87.43;98291.98;106881;1263;22665;-75
2023/09/10 08:45:33;;;;;;;11.50;10.30;;;;;;;23.94;86.46;98297.88;106986;1268;25540;-76
2023/09/10 08:48:02;;;;;;;11.60;10.40;;;;;;;24.03;85.53;98291.84;106722;1268;22635;-77
2023/09/10 08:50:32;;;;;;;11.60;10.60;;;;;;;24.14;86.16;98293.99;106701;1277;22542;-77
2023/09/10 08:53:01;;;;;;;13.10;11.80;;;;;;;24.28;85.26;98295.30;106710;1268;22587;-77
2023/09/10 08:55:31;;;;;;;13.30;10.30;;;;;;;24.37;84.18;98295.84;107141;1269;22548;-78
2023/09/10 08:57:59;;;;;;;13.20;10.50;;;;;;;24.40;83.38;98296.58;106768;1263;22639;-75
2023/09/10 09:00:29;;;;;;;12.40;11.00;;;;;;;24.44;81.72;98290.59;107056;1268;24360;-77
2023/09/10 09:02:58;;;;;;;11.20;10.10;;;;;;;24.50;82.69;98294.88;107051;1269;22535;-76
2023/09/10 09:05:29;;;;;;;12.20;9.80;;;;;;;24.61;82.39;98289.38;106718;1264;22523;-76
2023/09/10 09:08:06;;;;;;;11.40;10.20;;;;;;;24.71;82.05;98289.76;106748;1275;25618;-76
2023/09/10 09:10:34;;;;;;;11.10;9.90;;;;;;;24.82;81.66;98289.29;106681;1267;24382;-76
2023/09/10 09:13:08;;;;;;;10.60;9.60;;;;;;;24.91;81.53;98291.79;106590;1277;24245;-75
2023/09/10 09:15:38;;;;;;;12.70;10.30;;;;;;;25.06;81.09;98289.50;106614;1275;23918;-76
2023/09/10 09:18:10;;;;;;;11.10;10.00;;;;;;;25.19;81.13;98291.49;106724;1263;22613;-76
2023/09/10 09:20:44;;;;;;;11.30;10.20;;;;;;;25.33;80.41;98288.80;107068;1263;24419;-76
2023/09/10 09:23:27;;;;;;;12.60;11.00;;;;;;;25.44;79.79;98287.27;107007;1263;23800;-77
2023/09/10 09:25:57;;;;;;;11.20;9.30;;;;;;;25.54;77.93;98290.30;106805;1277;25299;-81
2023/09/10 09:28:27;;;;;;;11.70;10.20;;;;;;;25.61;78.73;98288.83;107144;1276;23170;-82
2023/09/10 09:30:55;;;;;;;11.00;9.90;;;;;;;25.71;78.06;98285.79;107030;1269;22540;-81
2023/09/10 09:33:24;;;;;;;9.90;9.00;;;;;;;25.81;77.64;98286.05;107167;1263;25290;-81
2023/09/10 09:35:52;;;;;;;11.00;9.20;;;;;;;25.92;77.04;98284.77;107100;1268;25290;-82
2023/09/10 09:38:20;;;;;;;10.00;9.00;;;;;;;25.96;75.92;98286.66;107154;1272;22597;-81
2023/09/10 09:40:48;;;;;;;12.50;9.40;;;;;;;26.04;75.97;98283.90;107093;1275;22552;-81
2023/09/10 09:43:16;;;;;;;10.20;8.50;;;;;;;26.20;76.20;98283.92;107096;1276;25503;-81
2023/09/10 09:45:48;;;;;;;12.60;8.20;;;;;;;26.27;71.57;98279.98;107065;1275;25350;-79
2023/09/10 09:48:16;;;;;;;10.80;7.80;;;;;;;26.16;69.09;98278.95;107056;1272;22556;-78
2023/09/10 09:50:47;;;;;;;10.40;7.80;;;;;;;26.09;68.40;98279.58;107136;1272;25581;-81
2023/09/10 09:53:15;;;;;;;8.10;7.20;;;;;;;26.13;70.64;98276.42;106907;1278;25400;-82
2023/09/10 09:55:44;;;;;;;8.70;7.50;;;;;;;26.21;68.52;98278.25;107147;1264;22907;-81
2023/09/10 09:58:13;;;;;;;10.20;7.50;;;;;;;26.21;65.52;98274.06;107555;1278;22496;-82
2023/09/10 10:00:43;;;;;;;8.50;7.50;;;;;;;26.17;65.13;98268.38;107158;1270;22535;-81
2023/09/10 10:03:11;;;;;;;8.70;7.20;;;;;;;26.21;65.07;98270.52;107141;1277;22637;-82
2023/09/10 10:05:40;;;;;;;7.90;6.90;;;;;;;26.22;63.69;98273.19;107146;1263;24358;-82
2023/09/10 10:08:10;;;;;;;8.20;7.10;;;;;;;26.27;66.10;98267.27;107038;1278;22527;-79
2023/09/10 10:10:46;;;;;;;9.40;7.20;;;;;;;26.46;64.86;98268.95;107104;1269;25439;-80
2023/09/10 10:13:17;;;;;;;9.30;6.70;;;;;;;26.62;65.59;98269.66;106958;1278;22534;-80
2023/09/10 10:15:47;;;;;;;7.90;6.60;;;;;;;26.77;64.85;98266.55;107067;1268;22535;-81
2023/09/10 10:18:17;;;;;;;8.90;6.20;;;;;;;26.86;62.56;98265.19;106958;1276;25495;-82
2023/09/10 10:20:47;;;;;;;8.30;6.40;;;;;;;26.90;62.54;98261.46;106988;1269;26567;-82
2023/09/10 10:23:20;;;;;;;9.20;5.90;;;;;;;26.94;59.87;98258.63;107121;1275;22639;-81
2023/09/10 10:25:58;;;;;;;7.50;6.50;;;;;;;26.92;57.10;98254.76;107143;1278;22544;-81
2023/09/10 10:28:27;;;;;;;9.10;6.50;;;;;;;26.86;57.23;98248.77;107095;1278;22119;-82
2023/09/10 10:31:14;;;;;;;10.00;6.60;;;;;;;26.83;58.16;98251.05;106936;1277;22581;-82
2023/09/10 10:34:09;;;;;;;10.20;6.40;;;;;;;26.89;58.30;98250.56;107102;1264;22590;-81
2023/09/10 10:36:55;;;;;;;;;;;;;;;27.07;60.00;98245.55;107416;1264;24214;-81
2023/09/10 10:39:34;;;;;;;8.80;6.80;;;;;;;27.32;59.82;98243.26;107006;1269;24409;-80
2023/09/10 10:42:04;;;;;;;7.90;6.40;;;;;;;27.46;58.25;98240.11;107139;1278;22528;-81
2023/09/10 10:44:37;;;;;;;9.60;6.80;;;;;;;27.56;57.49;98241.32;107142;1278;22516;-80
2023/09/10 10:47:13;;;;;;;10.90;6.00;;;;;;;27.70;58.14;98237.99;106952;1276;22542;-80
2023/09/10 10:49:52;;;;;;;8.30;6.70;;;;;;;27.81;56.88;98236.23;107174;1269;22637;-81
2023/09/10 10:52:29;;;;;;;8.50;5.80;;;;;;;27.84;55.70;98231.61;107056;1278;23370;-82
2023/09/10 10:54:58;;;;;;;8.80;5.80;;;;;;;27.80;52.95;98232.58;107025;1278;24290;-82
2023/09/10 10:57:28;;;;;;;7.20;5.40;;;;;;;27.80;54.62;98229.34;106977;1263;24256;-81
2023/09/10 10:59:56;;;;;;;11.00;6.00;;;;;;;27.93;54.72;98224.43;106987;1275;24471;-81
2023/09/10 11:02:25;;;;;;;6.90;6.00;;;;;;;28.03;53.49;98224.59;106964;1273;22602;-82
2023/09/10 11:05:06;;;;;;;8.60;5.80;;;;;;;28.14;52.19;98222.52;106994;1278;25374;-83
2023/09/10 11:07:34;;;;;;;9.30;5.10;;;;;;;28.17;52.63;98220.68;107071;1269;22524;-82
2023/09/10 11:10:24;;;;;;;6.70;5.10;;;;;;;28.24;51.53;98221.27;107041;1266;22551;-81
2023/09/10 11:13:06;;;;;;;12.90;5.40;;;;;;;28.37;50.24;98216.86;107027;1277;22530;-81
2023/09/10 11:15:34;;;;;;;7.70;5.70;;;;;;;28.43;47.07;98219.13;107136;1271;22526;-82
2023/09/10 11:18:36;;;;;;;8.70;5.50;;;;;;;28.38;46.96;98220.50;107003;1266;22660;-82
2023/09/10 11:21:16;;;;;;;8.40;5.00;;;;;;;28.45;48.89;98216.10;107129;1275;25395;-82
2023/09/10 11:23:56;;;;;;;5.80;4.60;;;;;;;28.61;49.22;98210.71;107050;1267;22679;-82